Time;durP1;ratioP1;P1;durP2;ratioP2;P2;SDS_P1;SDS_P2;PMS_P1;PMS_P2;Temp;Humidity;BMP_temperature;BMP_pressure;BME280_temperature;BME280_humidity;BME280_pressure;Samples;Min_cycle;Max_cycle;Signal;HPM_P1;HPM_P2
2024/04/25 00:00:18;;;;;;;;;;;;;;;13.67;56.84;93507.50;4444272;26;19989;-59
2024/04/25 00:02:20;;;;;;;;;;;;;;;13.64;56.06;93515.84;4435596;26;19999;-58
2024/04/25 00:04:22;;;;;;;;;;;;;;;13.60;55.30;93522.53;4436246;26;20075;-60
2024/04/25 00:06:24;;;;;;;;;;;;;;;13.61;54.90;93515.44;4443213;26;19934;-60
2024/04/25 00:08:26;;;;;;;;;;;;;;;13.55;54.54;93518.88;4437825;26;19954;-59
2024/04/25 00:10:28;;;;;;;;;;;;;;;13.52;54.01;93515.66;4428606;26;20005;-60
2024/04/25 00:12:30;;;;;;;;;;;;;;;13.55;53.76;93521.50;4445580;26;20060;-59
2024/04/25 00:14:32;;;;;;;;;;;;;;;13.51;53.29;93529.81;4439739;26;20364;-60
2024/04/25 00:16:33;;;;;;;;;;;;;;;13.55;53.01;93526.78;4439905;26;19934;-59
2024/04/25 00:18:35;;;;;;;;;;;;;;;13.54;51.47;93527.81;4445515;26;19933;-60
2024/04/25 00:20:37;;;;;;;;;;;;;;;13.56;51.60;93521.31;4433834;26;19942;-59
2024/04/25 00:22:39;;;;;;;;;;;;;;;13.51;51.14;93529.81;4444000;26;19937;-58
2024/04/25 00:24:41;;;;;;;;;;;;;;;13.50;51.13;93522.94;4444849;26;20384;-58
2024/04/25 00:26:43;;;;;;;;;;;;;;;13.51;50.78;93521.94;4429838;26;19936;-61
2024/04/25 00:28:45;;;;;;;;;;;;;;;13.48;49.91;93511.81;4443745;26;20003;-59
2024/04/25 00:30:47;;;;;;;;;;;;;;;13.49;49.59;93520.53;4443771;26;20002;-62
2024/04/25 00:32:52;;;;;;;;;;;;;;;13.47;49.56;93523.34;4434486;26;20085;-62
2024/04/25 00:34:57;;;;;;;;;;;;;;;13.42;49.11;93520.53;4447676;26;19929;-60
2024/04/25 00:36:59;;;;;;;;;;;;;;;13.42;49.19;93525.81;4430023;26;19937;-60
2024/04/25 00:39:01;;;;;;;;;;;;;;;13.41;49.05;93524.16;4469664;26;20009;-60
2024/04/25 00:41:03;;;;;;;;;;;;;;;13.36;48.35;93523.16;4443663;26;19936;-61
2024/04/25 00:43:05;;;;;;;;;;;;;;;13.34;48.83;93518.13;4441038;26;20261;-60
2024/04/25 00:45:07;;;;;;;;;;;;;;;13.31;48.57;93524.59;4446505;26;19936;-60
2024/04/25 00:47:09;;;;;;;;;;;;;;;13.34;48.35;93512.06;4442840;26;19979;-61
2024/04/25 00:49:11;;;;;;;;;;;;;;;13.31;48.20;93515.88;4438425;26;19937;-60
2024/04/25 00:51:13;;;;;;;;;;;;;;;13.30;48.17;93522.16;4444788;26;20334;-60
2024/04/25 00:53:15;;;;;;;;;;;;;;;13.29;47.87;93515.28;4427114;26;19955;-60
2024/04/25 00:55:17;;;;;;;;;;;;;;;13.18;48.46;93507.97;4441561;26;20006;-61
2024/04/25 00:57:18;;;;;;;;;;;;;;;13.09;48.47;93505.56;4433273;26;19929;-60
2024/04/25 00:59:20;;;;;;;;;;;;;;;13.04;48.26;93504.56;4437143;26;19945;-60
2024/04/25 01:01:22;;;;;;;;;;;;;;;13.02;48.68;93509.22;4443097;26;19957;-60
2024/04/25 01:03:24;;;;;;;;;;;;;;;12.99;48.87;93506.97;4443173;26;19929;-61
2024/04/25 01:05:26;;;;;;;;;;;;;;;13.02;48.56;93496.88;4436714;26;20269;-61
2024/04/25 01:07:27;;;;;;;;;;;;;;;13.08;47.95;93493.44;4440333;26;19937;-60
2024/04/25 01:09:29;;;;;;;;;;;;;;;13.07;48.52;93494.44;4438139;26;20076;-61
2024/04/25 01:11:33;;;;;;;;;;;;;;;13.07;48.89;93498.88;4442319;26;20265;-60
2024/04/25 01:13:35;;;;;;;;;;;;;;;13.05;48.50;93498.28;4412391;26;20353;-59
2024/04/25 01:15:37;;;;;;;;;;;;;;;13.09;48.66;93496.88;4440992;26;19936;-59
2024/04/25 01:17:38;;;;;;;;;;;;;;;13.10;48.19;93494.03;4440131;26;19930;-61
2024/04/25 01:19:40;;;;;;;;;;;;;;;13.07;48.47;93491.81;4444546;26;20475;-62
2024/04/25 01:21:42;;;;;;;;;;;;;;;13.09;48.76;93492.41;4444886;26;19941;-60
2024/04/25 01:23:44;;;;;;;;;;;;;;;13.10;48.34;93480.91;4434521;26;19930;-60
2024/04/25 01:25:46;;;;;;;;;;;;;;;13.15;48.35;93476.84;4432948;26;20019;-60
2024/04/25 01:27:48;;;;;;;;;;;;;;;13.03;48.36;93474.81;4436099;26;20076;-60
2024/04/25 01:29:51;;;;;;;;;;;;;;;13.03;48.28;93474.03;4439604;26;19937;-61
2024/04/25 01:31:53;;;;;;;;;;;;;;;13.06;48.25;93463.91;4435573;26;20007;-61
2024/04/25 01:33:55;;;;;;;;;;;;;;;13.06;48.24;93463.91;4425892;26;19992;-60
2024/04/25 01:35:57;;;;;;;;;;;;;;;13.05;47.97;93457.03;4424910;26;20013;-61
2024/04/25 01:37:59;;;;;;;;;;;;;;;13.11;47.89;93463.28;4437388;26;20293;-60
2024/04/25 01:40:01;;;;;;;;;;;;;;;13.13;47.89;93471.00;4437235;26;19937;-59
2024/04/25 01:42:03;;;;;;;;;;;;;;;13.15;48.04;93471.59;4441608;26;20065;-60
2024/04/25 01:44:05;;;;;;;;;;;;;;;13.15;47.84;93476.84;4426597;26;20336;-61
2024/04/25 01:46:07;;;;;;;;;;;;;;;13.17;48.23;93470.38;4439499;26;19930;-61
2024/04/25 01:48:08;;;;;;;;;;;;;;;13.17;47.85;93473.00;4441003;26;19959;-60
2024/04/25 01:50:10;;;;;;;;;;;;;;;13.11;48.39;93473.81;4433852;26;19956;-61
2024/04/25 01:52:12;;;;;;;;;;;;;;;13.17;48.04;93480.09;4435601;26;19937;-61
2024/04/25 01:54:14;;;;;;;;;;;;;;;13.18;48.19;93487.75;4440291;26;19936;-61
2024/04/25 01:56:16;;;;;;;;;;;;;;;13.10;48.33;93494.03;4439733;26;19994;-62
2024/04/25 01:58:18;;;;;;;;;;;;;;;13.08;48.64;93498.69;4434912;26;19964;-60
2024/04/25 02:00:20;;;;;;;;;;;;;;;13.06;48.78;93510.44;4437855;26;20044;-59
2024/04/25 02:02:21;;;;;;;;;;;;;;;13.03;48.91;93526.59;4421302;26;20381;-60
2024/04/25 02:04:23;;;;;;;;;;;;;;;12.91;49.74;93529.03;4430757;26;19937;-60
2024/04/25 02:06:28;;;;;;;;;;;;;;;12.82;50.34;93535.47;4429775;26;20124;-61
2024/04/25 02:08:30;;;;;;;;;;;;;;;12.75;50.41;93532.06;4443237;26;19933;-59
2024/04/25 02:10:32;;;;;;;;;;;;;;;12.76;51.34;93533.69;4444804;26;20283;-59
2024/04/25 02:12:33;;;;;;;;;;;;;;;12.65;52.51;93537.72;4441673;26;19998;-60
2024/04/25 02:14:35;;;;;;;;;;;;;;;12.49;54.01;93544.94;4444519;26;20085;-61
2024/04/25 02:16:37;;;;;;;;;;;;;;;12.41;55.29;93550.41;4437135;26;20417;-60
2024/04/25 02:18:39;;;;;;;;;;;;;;;12.26;56.14;93553.19;4444025;26;19929;-61
2024/04/25 02:25:22;;;;;;;;;;;;;;;11.58;60.42;93547.00;4435281;26;20395;-63
2024/04/25 02:27:23;;;;;;;;;;;;;;;11.61;61.27;93541.34;4432234;26;20049;-60
2024/04/25 02:29:25;;;;;;;;;;;;;;;11.45;61.77;93542.47;4441846;26;19933;-61
2024/04/25 02:31:31;;;;;;;;;;;;;;;11.44;62.46;93540.84;4442276;26;19929;-60
2024/04/25 02:33:33;;;;;;;;;;;;;;;11.40;63.35;93535.19;4447877;26;20024;-60
2024/04/25 02:35:35;;;;;;;;;;;;;;;11.25;64.11;93526.63;4440785;26;19929;-59
2024/04/25 02:37:37;;;;;;;;;;;;;;;11.15;64.82;93513.84;4441210;26;19930;-59
2024/04/25 02:39:39;;;;;;;;;;;;;;;11.09;65.02;93505.94;4438713;26;20475;-59
2024/04/25 02:41:41;;;;;;;;;;;;;;;11.07;65.14;93491.19;4439726;26;19979;-60
2024/04/25 02:43:43;;;;;;;;;;;;;;;11.11;65.66;93483.78;4438981;26;19929;-60
2024/04/25 02:45:45;;;;;;;;;;;;;;;11.16;65.39;93486.63;4426700;26;20237;-59
2024/04/25 02:47:47;;;;;;;;;;;;;;;11.20;65.98;93500.16;4421826;26;20176;-60
2024/04/25 02:49:49;;;;;;;;;;;;;;;11.19;65.62;93499.34;4421960;26;20000;-59
2024/04/25 02:51:51;;;;;;;;;;;;;;;11.20;65.59;93500.97;4437735;26;20012;-57
2024/04/25 02:53:53;;;;;;;;;;;;;;;11.22;66.10;93498.16;4443106;26;19949;-59
2024/04/25 02:55:55;;;;;;;;;;;;;;;11.26;66.01;93500.19;4443770;26;19937;-60
2024/04/25 02:57:56;;;;;;;;;;;;;;;11.23;66.12;93497.16;4430701;26;20398;-60
2024/04/25 02:59:58;;;;;;;;;;;;;;;11.27;65.78;93501.81;4440763;26;20287;-59
2024/04/25 03:02:00;;;;;;;;;;;;;;;11.29;65.76;93499.00;4440847;26;19954;-60
2024/04/25 03:04:02;;;;;;;;;;;;;;;11.24;66.01;93496.16;4436544;26;20280;-61
2024/04/25 03:06:03;;;;;;;;;;;;;;;11.16;66.61;93493.69;4431426;26;19937;-60
2024/04/25 03:08:05;;;;;;;;;;;;;;;11.21;67.12;93496.56;4443748;26;19934;-60
2024/04/25 03:10:07;;;;;;;;;;;;;;;11.28;66.79;93502.63;4437360;26;19977;-59
2024/04/25 03:12:09;;;;;;;;;;;;;;;11.39;66.98;93502.09;4440799;26;19941;-61
2024/04/25 03:14:11;;;;;;;;;;;;;;;11.24;66.31;93501.41;4439408;26;19996;-59
2024/04/25 03:16:13;;;;;;;;;;;;;;;10.79;67.71;93498.25;4443097;26;20272;-59
2024/04/25 03:18:15;;;;;;;;;;;;;;;10.80;68.27;93505.94;4437169;26;19954;-59
2024/04/25 03:20:17;;;;;;;;;;;;;;;10.89;68.13;93505.81;4435708;26;20023;-59
2024/04/25 03:22:19;;;;;;;;;;;;;;;10.95;67.61;93518.94;4440918;26;20266;-60
2024/04/25 03:24:20;;;;;;;;;;;;;;;11.01;67.08;93517.34;4435632;26;19933;-60
2024/04/25 03:26:22;;;;;;;;;;;;;;;11.06;67.07;93518.41;4439546;26;20077;-59
2024/04/25 03:28:24;;;;;;;;;;;;;;;11.03;67.15;93526.69;4429779;26;19962;-61
2024/04/25 03:30:26;;;;;;;;;;;;;;;11.03;67.25;93531.09;4438136;26;19929;-60
2024/04/25 03:32:29;;;;;;;;;;;;;;;10.97;67.39;93537.91;4442324;26;19953;-61
2024/04/25 03:34:31;;;;;;;;;;;;;;;10.88;67.98;93551.31;4435532;26;19948;-59
2024/04/25 03:36:33;;;;;;;;;;;;;;;10.72;68.40;93539.31;4439433;26;19933;-58
2024/04/25 03:38:35;;;;;;;;;;;;;;;10.73;68.48;93536.47;4442748;26;19974;-60
2024/04/25 03:40:39;;;;;;;;;;;;;;;10.68;68.31;93551.16;4442380;26;20002;-60
2024/04/25 03:42:41;;;;;;;;;;;;;;;10.69;68.16;93552.75;4438551;26;20245;-61
2024/04/25 03:44:43;;;;;;;;;;;;;;;10.66;68.27;93541.66;4439033;26;19941;-60
2024/04/25 03:46:46;;;;;;;;;;;;;;;10.70;68.20;93551.78;4429353;26;20319;-60
2024/04/25 03:48:48;;;;;;;;;;;;;;;10.74;68.17;93542.56;4441001;26;19929;-58
2024/04/25 03:50:50;;;;;;;;;;;;;;;10.81;67.71;93546.03;4425220;26;19934;-60
2024/04/25 03:52:52;;;;;;;;;;;;;;;10.81;68.18;93538.16;4438795;26;20469;-64
2024/04/25 03:54:54;;;;;;;;;;;;;;;10.88;68.10;93532.97;4435326;26;19942;-58
2024/04/25 03:56:58;;;;;;;;;;;;;;;10.86;67.52;93535.78;4424372;26;19938;-60
2024/04/25 03:59:00;;;;;;;;;;;;;;;10.87;67.54;93534.81;4442810;26;19984;-61
2024/04/25 04:01:01;;;;;;;;;;;;;;;10.96;67.83;93536.28;4428812;26;20353;-58
2024/04/25 04:03:03;;;;;;;;;;;;;;;10.97;67.74;93532.66;4430798;26;20337;-62
2024/04/25 04:05:06;;;;;;;;;;;;;;;11.02;66.94;93540.75;4432820;26;19942;-60
2024/04/25 04:07:08;;;;;;;;;;;;;;;11.11;67.33;93538.00;4443996;26;20309;-62
2024/04/25 04:09:10;;;;;;;;;;;;;;;11.16;67.21;93538.22;4443236;26;19930;-59
2024/04/25 04:11:12;;;;;;;;;;;;;;;11.17;66.74;93535.44;4439512;26;20007;-61
2024/04/25 04:13:14;;;;;;;;;;;;;;;11.15;67.15;93534.00;4439291;26;20291;-60
2024/04/25 04:15:15;;;;;;;;;;;;;;;11.14;67.23;93532.38;4442118;26;20283;-60
2024/04/25 04:17:21;;;;;;;;;;;;;;;11.15;67.22;93529.56;4436051;26;19933;-60
2024/04/25 04:19:23;;;;;;;;;;;;;;;11.12;67.56;93535.22;4436225;26;20053;-62
2024/04/25 04:21:25;;;;;;;;;;;;;;;11.03;67.91;93531.91;4442749;26;20356;-60
2024/04/25 04:23:27;;;;;;;;;;;;;;;10.99;68.04;93543.78;4443309;26;19933;-61
2024/04/25 04:25:29;;;;;;;;;;;;;;;11.01;68.22;93544.41;4443929;26;19937;-61
2024/04/25 04:27:30;;;;;;;;;;;;;;;11.03;68.32;93544.19;4434431;26;20462;-61
2024/04/25 04:29:32;;;;;;;;;;;;;;;10.97;68.39;93551.00;4439079;26;19937;-62
2024/04/25 04:31:34;;;;;;;;;;;;;;;11.05;68.47;93542.19;4445469;26;19929;-62
2024/04/25 04:33:36;;;;;;;;;;;;;;;11.06;68.54;93547.25;4444546;26;20290;-61
2024/04/25 04:35:41;;;;;;;;;;;;;;;11.03;68.84;93544.19;4439185;26;19938;-65
2024/04/25 04:37:43;;;;;;;;;;;;;;;11.04;68.96;93549.25;4444845;26;19969;-61
2024/04/25 04:39:45;;;;;;;;;;;;;;;11.09;68.72;93550.50;4441077;26;20286;-60
2024/04/25 04:41:46;;;;;;;;;;;;;;;11.12;68.57;93539.63;4439586;26;19938;-61
2024/04/25 04:43:50;;;;;;;;;;;;;;;11.08;68.20;93541.81;4430045;26;20003;-59
2024/04/25 04:45:55;;;;;;;;;;;;;;;11.13;68.67;93541.25;4433490;26;20318;-60
2024/04/25 04:47:57;;;;;;;;;;;;;;;11.21;68.33;93543.72;4443009;26;19929;-60
2024/04/25 04:49:59;;;;;;;;;;;;;;;11.23;67.94;93541.72;4437450;26;19930;-63
2024/04/25 04:52:01;;;;;;;;;;;;;;;11.27;68.08;93542.94;4443945;26;20325;-62
2024/04/25 04:54:03;;;;;;;;;;;;;;;11.31;68.46;93544.19;4443358;26;19941;-62
2024/04/25 04:56:05;;;;;;;;;;;;;;;11.20;68.37;93542.09;4442121;26;19937;-62
2024/04/25 04:58:08;;;;;;;;;;;;;;;11.12;68.54;93544.84;4430428;26;20038;-61
2024/04/25 05:00:10;;;;;;;;;;;;;;;11.19;68.69;93549.16;4426116;26;19934;-62
2024/04/25 05:02:12;;;;;;;;;;;;;;;11.21;68.94;93541.91;4451152;26;20361;-62
2024/04/25 05:04:14;;;;;;;;;;;;;;;11.18;68.48;93542.28;4429766;26;20368;-59
2024/04/25 05:06:17;;;;;;;;;;;;;;;11.20;68.24;93552.59;4431835;26;19942;-61
2024/04/25 05:08:18;;;;;;;;;;;;;;;11.15;68.19;93549.72;4439547;26;19930;-61
2024/04/25 05:10:20;;;;;;;;;;;;;;;11.22;68.34;93558.44;4441847;26;19936;-62
2024/04/25 05:12:23;;;;;;;;;;;;;;;11.22;68.41;93555.81;4437945;26;19937;-60
2024/04/25 05:14:29;;;;;;;;;;;;;;;11.02;68.96;93566.97;4430481;26;20374;-60
2024/04/25 05:16:33;;;;;;;;;;;;;;;11.02;69.06;93566.97;4463023;26;20612;-59
2024/04/25 05:18:35;;;;;;;;;;;;;;;10.97;69.47;93571.97;4423877;26;20049;-58
2024/04/25 05:20:36;;;;;;;;;;;;;;;11.02;69.62;93574.03;4430668;26;19934;-61
2024/04/25 05:22:40;;;;;;;;;;;;;;;10.97;69.50;93569.34;4440954;26;20002;-59
2024/04/25 05:24:41;;;;;;;;;;;;;;;10.87;69.41;93568.84;4430614;26;20320;-60
2024/04/25 05:26:43;;;;;;;;;;;;;;;10.81;70.08;93561.75;4427020;26;19930;-62
2024/04/25 05:28:45;;;;;;;;;;;;;;;10.80;70.20;93554.91;4426935;26;19930;-62
2024/04/25 05:30:47;;;;;;;;;;;;;;;10.79;70.16;93558.50;4427567;26;19946;-62
2024/04/25 05:32:49;;;;;;;;;;;;;;;10.76;70.56;93556.28;4429538;26;20277;-62
2024/04/25 05:34:54;;;;;;;;;;;;;;;10.82;70.53;93560.78;4426467;26;19937;-62
2024/04/25 05:36:56;;;;;;;;;;;;;;;10.77;70.49;93561.31;4423421;26;19970;-61
2024/04/25 05:38:58;;;;;;;;;;;;;;;10.79;71.24;93561.94;4434979;26;19957;-61
2024/04/25 05:41:02;;;;;;;;;;;;;;;10.88;71.14;93546.88;4434794;26;19978;-61
2024/04/25 05:43:05;;;;;;;;;;;;;;;10.90;71.64;93551.94;4439658;26;19936;-59
2024/04/25 05:45:09;;;;;;;;;;;;;;;10.98;71.17;93559.69;4438678;26;20500;-60
2024/04/25 05:47:14;;;;;;;;;;;;;;;11.04;71.11;93556.31;4442561;26;19937;-61
2024/04/25 05:49:16;;;;;;;;;;;;;;;11.14;71.21;93563.81;4446100;26;19974;-60
2024/04/25 05:51:18;;;;;;;;;;;;;;;11.12;70.76;93558.78;4444414;26;20418;-61
2024/04/25 05:53:19;;;;;;;;;;;;;;;11.11;70.66;93551.13;4431176;26;19943;-62
2024/04/25 05:55:21;;;;;;;;;;;;;;;11.07;70.36;93554.09;4435279;26;20669;-61
2024/04/25 05:57:23;;;;;;;;;;;;;;;11.06;70.64;93549.88;4445254;26;19956;-61
2024/04/25 05:59:25;;;;;;;;;;;;;;;11.12;70.64;93537.81;4443222;26;19945;-60
2024/04/25 06:01:27;;;;;;;;;;;;;;;11.17;70.10;93545.13;4444410;26;20032;-60
2024/04/25 06:03:29;;;;;;;;;;;;;;;11.00;70.92;93540.13;4441842;26;19930;-62
2024/04/25 06:05:31;;;;;;;;;;;;;;;11.06;71.53;93542.00;4440063;26;20392;-61
2024/04/25 06:07:32;;;;;;;;;;;;;;;11.00;70.92;93542.75;4430121;26;19937;-61
2024/04/25 06:09:34;;;;;;;;;;;;;;;11.04;70.98;93541.38;4444123;26;19960;-61
2024/04/25 06:11:37;;;;;;;;;;;;;;;11.04;70.96;93537.97;4460204;26;20006;-60
2024/04/25 06:13:41;;;;;;;;;;;;;;;11.05;70.91;93534.31;4426203;26;20612;-60
2024/04/25 06:15:43;;;;;;;;;;;;;;;11.06;70.83;93547.25;4443784;26;19940;-60
2024/04/25 06:17:45;;;;;;;;;;;;;;;11.08;71.16;93549.69;4442088;26;20271;-61
2024/04/25 06:19:47;;;;;;;;;;;;;;;11.05;71.00;93543.00;4432738;26;19942;-60
2024/04/25 06:21:49;;;;;;;;;;;;;;;11.07;71.08;93542.81;4436468;26;20409;-60
2024/04/25 06:23:50;;;;;;;;;;;;;;;11.00;71.35;93547.19;4442056;26;19937;-61
2024/04/25 06:25:52;;;;;;;;;;;;;;;10.99;71.32;93540.31;4439325;26;19929;-60
2024/04/25 06:27:54;;;;;;;;;;;;;;;11.01;71.31;93548.81;4443302;26;20002;-61
2024/04/25 06:29:56;;;;;;;;;;;;;;;11.06;71.34;93551.69;4444432;26;20600;-63
2024/04/25 06:31:58;;;;;;;;;;;;;;;11.14;71.24;93545.47;4442229;26;19973;-61
2024/04/25 06:34:02;;;;;;;;;;;;;;;11.17;71.67;93542.50;4444328;26;20039;-63
2024/04/25 06:36:04;;;;;;;;;;;;;;;11.21;70.94;93544.53;4439574;26;19930;-61
2024/04/25 06:38:09;;;;;;;;;;;;;;;11.27;70.77;93538.53;4444420;26;19941;-60
2024/04/25 06:40:11;;;;;;;;;;;;;;;11.29;70.84;93530.44;4442781;26;19930;-60
2024/04/25 06:42:14;;;;;;;;;;;;;;;11.32;69.96;93539.78;4429076;26;19930;-61
2024/04/25 06:44:17;;;;;;;;;;;;;;;11.42;70.18;93541.06;4438936;26;20031;-61
2024/04/25 06:46:32;;;;;;;;;;;;;;;11.39;69.88;93541.41;4429363;26;19992;-59
2024/04/25 06:48:35;;;;;;;;;;;;;;;11.38;69.74;93544.22;4436123;26;19944;-63
2024/04/25 06:50:38;;;;;;;;;;;;;;;11.38;69.90;93549.47;4440402;26;19943;-59
2024/04/25 06:52:41;;;;;;;;;;;;;;;11.37;69.65;93548.66;4443686;26;19938;-62
2024/04/25 06:54:43;;;;;;;;;;;;;;;11.42;69.94;93546.28;4442908;26;20325;-60
2024/04/25 06:56:45;;;;;;;;;;;;;;;11.45;69.48;93548.53;4437504;26;19929;-62
2024/04/25 06:58:47;;;;;;;;;;;;;;;11.47;69.12;93543.09;4423017;26;19934;-61
2024/04/25 07:00:49;;;;;;;;;;;;;;;11.44;69.43;93546.06;4440829;26;19937;-62
2024/04/25 07:02:51;;;;;;;;;;;;;;;11.45;69.84;93540.66;4421889;26;19930;-61
2024/04/25 07:04:54;;;;;;;;;;;;;;;11.54;69.58;93548.38;4438646;26;20346;-60
2024/04/25 07:07:00;;;;;;;;;;;;;;;11.47;69.37;93541.28;4423006;26;19999;-63
2024/04/25 07:09:06;;;;;;;;;;;;;;;11.29;69.25;93551.44;4423227;26;19941;-60
2024/04/25 07:11:08;;;;;;;;;;;;;;;11.41;69.91;93549.09;4426259;26;19981;-61
2024/04/25 07:13:10;;;;;;;;;;;;;;;11.51;69.86;93546.94;4438048;26;19933;-61
2024/04/25 07:15:11;;;;;;;;;;;;;;;11.45;68.78;93540.66;4428042;26;20295;-61
2024/04/25 07:17:13;;;;;;;;;;;;;;;11.57;69.50;93550.59;4443235;26;19934;-60
2024/04/25 07:19:17;;;;;;;;;;;;;;;11.64;69.27;93549.66;4442214;26;19947;-63
2024/04/25 07:21:22;;;;;;;;;;;;;;;11.61;68.11;93543.97;4441214;26;20248;-62
2024/04/25 07:23:24;;;;;;;;;;;;;;;11.66;69.16;93549.47;4439525;26;19930;-62
2024/04/25 07:25:26;;;;;;;;;;;;;;;11.73;67.74;93552.91;4440474;26;19989;-61
2024/04/25 07:27:30;;;;;;;;;;;;;;;11.85;67.98;93551.38;4445100;26;20360;-61
2024/04/25 07:29:32;;;;;;;;;;;;;;;11.99;67.77;93554.06;4437084;26;19938;-60
2024/04/25 07:31:36;;;;;;;;;;;;;;;11.92;67.40;93556.69;4446994;26;20137;-60
2024/04/25 07:33:39;;;;;;;;;;;;;;;11.92;67.23;93559.31;4445413;26;20030;-61
2024/04/25 07:35:43;;;;;;;;;;;;;;;11.85;66.37;93555.78;4444848;26;19941;-63
2024/04/25 07:37:44;;;;;;;;;;;;;;;11.90;66.49;93557.88;4439205;26;19929;-63
2024/04/25 07:39:46;;;;;;;;;;;;;;;11.99;66.90;93560.13;4426052;26;19945;-61
2024/04/25 07:41:48;;;;;;;;;;;;;;;12.07;66.24;93559.97;4440153;26;19995;-62
2024/04/25 07:43:50;;;;;;;;;;;;;;;12.11;66.52;93551.69;4444354;26;19961;-62
2024/04/25 07:45:52;;;;;;;;;;;;;;;11.76;67.84;93563.00;4444338;26;19930;-61
2024/04/25 07:47:54;;;;;;;;;;;;;;;11.47;67.41;93570.13;4440054;26;19931;-60
2024/04/25 07:49:57;;;;;;;;;;;;;;;11.24;68.72;93564.31;4437319;26;19999;-61
2024/04/25 07:51:58;;;;;;;;;;;;;;;11.23;69.24;93570.56;4435777;26;20418;-59
2024/04/25 07:54:01;;;;;;;;;;;;;;;11.36;68.63;93572.47;4433019;26;19937;-60
2024/04/25 07:56:04;;;;;;;;;;;;;;;11.54;67.57;93569.34;4435814;26;19998;-60
2024/04/25 07:58:06;;;;;;;;;;;;;;;11.74;66.53;93577.34;4443204;26;20387;-59
2024/04/25 08:00:09;;;;;;;;;;;;;;;11.71;66.43;93570.66;4440248;26;19941;-59
2024/04/25 08:02:11;;;;;;;;;;;;;;;11.79;66.23;93577.59;4428281;26;20355;-61
2024/04/25 08:04:13;;;;;;;;;;;;;;;11.88;66.21;93579.88;4434406;26;20302;-63
2024/04/25 08:06:15;;;;;;;;;;;;;;;11.91;65.82;93577.84;4441202;26;19941;-60
2024/04/25 08:08:18;;;;;;;;;;;;;;;11.85;65.61;93582.03;4440517;26;19949;-62
2024/04/25 08:10:26;;;;;;;;;;;;;;;11.94;65.82;93574.84;4456823;26;19966;-61
2024/04/25 08:12:28;;;;;;;;;;;;;;;11.85;66.70;93571.53;4434144;26;20382;-63
2024/04/25 08:14:30;;;;;;;;;;;;;;;11.91;66.77;93580.47;4440732;26;20006;-62
2024/04/25 08:16:32;;;;;;;;;;;;;;;11.91;66.68;93585.72;4422566;26;19937;-63
2024/04/25 08:18:34;;;;;;;;;;;;;;;11.91;66.41;93578.66;4423391;26;20010;-62
2024/04/25 08:20:36;;;;;;;;;;;;;;;11.76;67.01;93576.13;4435979;26;20360;-61
2024/04/25 08:22:37;;;;;;;;;;;;;;;11.01;69.78;93569.78;4425122;26;19961;-60
2024/04/25 08:24:39;;;;;;;;;;;;;;;11.09;70.70;93574.06;4426644;26;19949;-60
2024/04/25 08:26:41;;;;;;;;;;;;;;;11.13;68.94;93588.44;4424132;26;19976;-62
2024/04/25 08:28:43;;;;;;;;;;;;;;;11.30;69.58;93576.66;4441232;26;19937;-61
2024/04/25 08:30:45;;;;;;;;;;;;;;;11.40;69.11;93573.69;4440347;26;19983;-63
2024/04/25 08:32:47;;;;;;;;;;;;;;;11.42;68.68;93569.91;4443835;26;19970;-60
2024/04/25 08:34:49;;;;;;;;;;;;;;;11.56;69.20;93573.41;4438461;26;20003;-61
2024/04/25 08:36:51;;;;;;;;;;;;;;;11.68;68.74;93576.31;4440262;26;19998;-62
2024/04/25 08:38:52;;;;;;;;;;;;;;;11.78;68.16;93587.25;4433327;26;20247;-59
2024/04/25 08:40:55;;;;;;;;;;;;;;;11.80;68.32;93593.09;4428554;26;19930;-60
2024/04/25 08:42:56;;;;;;;;;;;;;;;11.84;68.55;93585.66;4436153;26;19930;-60
2024/04/25 08:44:58;;;;;;;;;;;;;;;11.80;68.36;93585.25;4448647;26;19936;-62
2024/04/25 08:47:00;;;;;;;;;;;;;;;11.17;70.07;93579.19;4438484;26;19930;-62
2024/04/25 08:49:02;;;;;;;;;;;;;;;10.78;71.83;93580.47;4442668;26;19930;-60
2024/04/25 08:51:04;;;;;;;;;;;;;;;10.93;72.42;93577.78;4433087;26;19933;-62
2024/04/25 08:53:05;;;;;;;;;;;;;;;10.49;71.54;93574.34;4434801;26;19961;-61
2024/04/25 08:55:08;;;;;;;;;;;;;;;10.42;72.61;93576.09;4417070;26;19962;-61
2024/04/25 08:57:10;;;;;;;;;;;;;;;10.70;73.07;93565.69;4441250;26;19945;-60
2024/04/25 08:59:12;;;;;;;;;;;;;;;11.04;71.21;93567.59;4441825;26;20034;-61
2024/04/25 09:01:13;;;;;;;;;;;;;;;11.54;70.17;93569.34;4483672;26;20028;-61
2024/04/25 09:03:15;;;;;;;;;;;;;;;11.99;68.98;93570.63;4438440;26;20297;-62
2024/04/25 09:05:18;;;;;;;;;;;;;;;12.42;68.43;93566.97;4445189;26;19937;-62
2024/04/25 09:07:20;;;;;;;;;;;;;;;12.61;67.50;93568.00;4435202;26;19930;-61
2024/04/25 09:09:23;;;;;;;;;;;;;;;12.58;65.56;93569.19;4435844;26;19929;-60
2024/04/25 09:11:24;;;;;;;;;;;;;;;11.92;64.84;93576.88;4437237;26;20203;-61
2024/04/25 09:13:27;;;;;;;;;;;;;;;11.64;66.77;93581.13;4436389;26;19937;-60
2024/04/25 09:15:28;;;;;;;;;;;;;;;11.45;67.15;93572.13;4438394;26;20430;-60
2024/04/25 09:17:30;;;;;;;;;;;;;;;11.50;68.44;93568.13;4431761;26;19929;-63
2024/04/25 09:19:34;;;;;;;;;;;;;;;11.74;67.79;93570.25;4433508;26;19954;-62
2024/04/25 09:21:36;;;;;;;;;;;;;;;12.09;66.85;93562.41;4418674;26;19930;-61
2024/04/25 09:23:40;;;;;;;;;;;;;;;12.29;64.69;93557.22;4433153;26;19929;-62
2024/04/25 09:25:41;;;;;;;;;;;;;;;12.42;64.34;93556.44;4428266;26;19942;-63
2024/04/25 09:27:44;;;;;;;;;;;;;;;12.59;63.51;93555.06;4436828;26;19973;-61
2024/04/25 09:29:45;;;;;;;;;;;;;;;12.81;63.69;93563.59;4449477;26;20466;-62
2024/04/25 09:31:50;;;;;;;;;;;;;;;12.99;63.34;93546.41;4433189;26;19985;-62
2024/04/25 09:33:58;;;;;;;;;;;;;;;13.12;63.16;93551.69;4434849;26;20019;-61
2024/04/25 09:36:00;;;;;;;;;;;;;;;12.25;63.69;93562.03;4429752;26;19930;-60
2024/04/25 09:38:02;;;;;;;;;;;;;;;12.02;65.16;93562.38;4442666;26;20046;-61
2024/04/25 09:40:04;;;;;;;;;;;;;;;11.78;64.41;93566.25;4433407;26;19930;-63
2024/04/25 09:42:07;;;;;;;;;;;;;;;11.47;65.69;93550.97;4424386;26;20332;-61
2024/04/25 09:44:09;;;;;;;;;;;;;;;11.61;66.16;93546.59;4429052;26;19949;-62
2024/04/25 09:46:15;;;;;;;;;;;;;;;11.82;65.78;93549.13;4440395;26;19929;-61
2024/04/25 09:48:19;;;;;;;;;;;;;;;12.15;65.01;93545.84;4433446;26;20360;-61
2024/04/25 09:50:25;;;;;;;;;;;;;;;12.44;64.73;93544.72;4444492;26;19937;-62
2024/04/25 09:52:37;;;;;;;;;;;;;;;12.76;63.92;93545.00;4441007;26;19930;-63
2024/04/25 09:54:45;;;;;;;;;;;;;;;13.04;63.12;93539.56;4464051;26;19966;-63
2024/04/25 09:56:48;;;;;;;;;;;;;;;13.30;62.56;93544.00;4419846;26;20338;-62
2024/04/25 09:58:51;;;;;;;;;;;;;;;13.54;63.09;93538.31;4432746;26;19937;-60
2024/04/25 10:00:53;;;;;;;;;;;;;;;13.05;61.49;93541.16;4440551;26;19937;-59
2024/04/25 10:02:56;;;;;;;;;;;;;;;12.69;62.00;93536.28;4438119;26;20329;-61
2024/04/25 10:04:58;;;;;;;;;;;;;;;12.75;63.09;93545.19;4448809;26;20368;-62
2024/04/25 10:07:00;;;;;;;;;;;;;;;12.64;63.18;93549.22;4444824;26;20402;-63
2024/04/25 10:09:02;;;;;;;;;;;;;;;12.43;63.95;93550.19;4426383;26;20380;-61
2024/04/25 10:11:05;;;;;;;;;;;;;;;12.48;64.45;93542.53;4432484;26;20638;-62
2024/04/25 10:13:19;;;;;;;;;;;;;;;12.46;64.56;93555.84;4431627;26;20006;-61
2024/04/25 10:15:27;;;;;;;;;;;;;;;12.41;65.05;93553.03;4428046;26;19944;-62
2024/04/25 10:17:34;;;;;;;;;;;;;;;12.49;64.35;93557.25;4425717;26;20341;-60
2024/04/25 10:19:38;;;;;;;;;;;;;;;11.88;65.35;93564.13;4430504;26;20400;-62
2024/04/25 10:21:44;;;;;;;;;;;;;;;11.58;67.38;93555.66;4442259;26;19930;-63
2024/04/25 10:23:49;;;;;;;;;;;;;;;11.26;68.00;93559.69;4430583;26;20003;-61
2024/04/25 10:25:52;;;;;;;;;;;;;;;11.22;68.80;93564.50;4429536;26;19938;-64
2024/04/25 10:27:56;;;;;;;;;;;;;;;11.12;69.01;93561.41;4438515;26;20388;-62
2024/04/25 10:30:02;;;;;;;;;;;;;;;11.09;70.49;93566.22;4430022;26;19937;-62
2024/04/25 10:32:06;;;;;;;;;;;;;;;11.14;71.55;93563.81;4427564;26;19942;-62
2024/04/25 10:34:08;;;;;;;;;;;;;;;11.25;71.51;93560.69;4432043;26;19933;-61
2024/04/25 10:36:12;;;;;;;;;;;;;;;11.14;71.95;93559.41;4424080;26;19958;-63
2024/04/25 10:38:21;;;;;;;;;;;;;;;10.86;71.90;93560.19;4441446;26;19936;-60
2024/04/25 10:40:23;;;;;;;;;;;;;;;10.54;74.04;93574.59;4420588;26;20257;-63
2024/04/25 10:42:25;;;;;;;;;;;;;;;10.46;75.63;93566.88;4437882;26;20372;-62